Lower Hutt, New Zealand
Current Conditions -  °F | °C
As of 3:00 AM on Thursday 27 Nov 2014 (Local Time) from NZWN Reporting Station
Clear Clear  
Wind Chill: 57°   Ceiling: Unl
Heat Index: 57°   Visibility: 6mi
Dew Point: 48°   Wind: 21mph
Humidity: 72%   Direction: 360°N
Pressure: 29.74"   Gusts: 35mph
Location:  41.21°S, 174.9°E
Report Text: NZWN 261500Z AUTO 36018G30KT 9999 NCD 14/09 Q1007 NOSIG
Loading
Personal Weather Stations






























Interactive Weather Map New forecast layout! Learn more

10-Day Weather Forecast

Advertisements
Track Severe Weather on mobile